Flight Track Log - Related Links

Times and Time Zones

All times are in EST time to prevent confusion due to time zone crossing. See the RPA3228 flight status page for this flight to view local times or setup timezone preferences in your user account.

Time Position Orientation Groundspeed Altitude Reporting Facility
EST Latitude Longitude Course Direction KTS MPH feet Rate Location/Type
Sat 10:22:09 AM 38.8333 -77.0333 339° North 146 168 1,100  Level Potomac TRACON
Sat 10:23:10 AM 38.7833 -77.0333 180° South 205 236 3,700 2,817 Climbing Potomac TRACON
Sat 10:24:00 AM 39.1075 -77.1373 337° Northwest  Level Estimated
Sat 10:24:04 AM 38.7500 -77.0833 229° Southwest 257 296 6,500  Level Potomac TRACON
Sat 10:25:00 AM 39.1870 -77.1889 333° Northwest  Level FlightAware Approximate
Sat 10:25:04 AM 38.7333 -77.1667 256° West 265 305 10,200  Level Potomac TRACON
Sat 10:26:00 AM 39.2723 -77.2219 333° Northwest  Level Estimated
Sat 10:26:05 AM 38.7333 -77.2667 270° West 318 366 11,000  Level Potomac TRACON
Sat 10:27:00 AM 39.3575 -77.2551 339° North  Level Estimated
Sat 10:27:05 AM 38.8167 -77.3333 328° Northwest 316 364 11,000  Level Potomac TRACON
Sat 10:29:07 AM 38.9639 -77.4283 333° Northwest 331 381 14,700 1,978 Climbing Washington Center
Sat 10:30:07 AM 39.0639 -77.4361 357° North 341 392 17,000 1,140 Climbing Washington Center
Sat 10:31:08 AM 39.1619 -77.4386 359° North 341 392 17,000 545 Level Washington Center
Sat 10:32:08 AM 39.2597 -77.4439 358° North 346 398 18,100 1,627 Climbing Washington Center
Sat 10:33:06 AM 39.3597 -77.4464 359° North 351 404 20,200 2,367 Climbing Washington Center
Sat 10:35:08 AM 39.5842 -77.4572 358° North 381 438 25,200 2,230 Climbing New York Center
Sat 10:36:09 AM 39.6906 -77.4567 360° North 381 438 27,000 885 Climbing New York Center
Sat 10:37:10 AM 39.8008 -77.4592 359° North 386 444 27,000  Level New York Center
Sat 10:38:10 AM 39.9053 -77.4906 347° North 386 444 27,000  Level New York Center
Sat 10:39:10 AM 39.9950 -77.5264 343° North 381 438 27,000  Level New York Center
Sat 10:40:08 AM 40.0889 -77.5653 342° North 386 444 27,000  Level New York Center
Sat 10:41:09 AM 40.2011 -77.6064 344° North 386 444 27,000  Level New York Center
Sat 10:42:09 AM 40.3031 -77.6461 343° North 386 444 27,000  Level New York Center
Sat 10:43:10 AM 40.4028 -77.6861 343° North 381 438 27,000  Level New York Center
Sat 10:44:10 AM 40.5131 -77.7272 344° North 375 432 27,000 -458 Level New York Center
Sat 10:45:08 AM 40.6128 -77.7703 342° North 375 432 26,100 -504 Descending New York Center
Sat 10:46:09 AM 40.7147 -77.8081 344° North 375 432 26,000 -32 Descending New York Center
Sat 10:48:17 AM 40.9131 -77.8886 343° North 378 435 26,000  Level Cleveland Center
Sat 10:49:19 AM 41.0328 -77.9367 343° North 378 435 26,000  Level Cleveland Center
Sat 10:50:21 AM 41.1319 -77.9781 343° North 378 435 26,000  Level Cleveland Center
Sat 10:51:23 AM 41.2314 -78.0181 343° North 378 435 26,000  Level Cleveland Center
Sat 10:52:25 AM 41.3314 -78.0581 343° North 379 436 26,000  Level Cleveland Center
Sat 10:53:27 AM 41.4297 -78.0981 343° North 375 432 26,000  Level Cleveland Center
Sat 10:54:29 AM 41.5483 -78.1458 343° North 375 432 26,000 -726 Level Cleveland Center
Sat 10:55:31 AM 41.6478 -78.1869 343° North 377 434 24,500 -1,548 Descending Cleveland Center
Sat 10:56:33 AM 41.7458 -78.2269 343° North 373 429 22,800 -1,597 Descending Cleveland Center
Sat 10:57:35 AM 41.8425 -78.2675 343° North 369 425 21,200 -1,561 Descending Cleveland Center
Sat 10:58:36 AM 41.9381 -78.3072 343° North 364 419 19,600 -1,707 Descending Cleveland Center
Sat 10:59:38 AM 42.0508 -78.3522 343° North 357 411 17,700 -1,645 Descending Cleveland Center
Sat 11:00:40 AM 42.1431 -78.3931 342° North 352 405 16,200 -1,403 Descending Cleveland Center
Sat 11:01:42 AM 42.2247 -78.4261 343° North 347 399 14,800 -1,548 Descending Cleveland Center
Sat 11:02:44 AM 42.3325 -78.4717 343° North 340 391 13,000 -1,561 Descending Cleveland Center
Sat 11:03:45 AM 42.4200 -78.5089 343° North 332 382 11,600 -1,366 Descending Cleveland Center
Sat 11:04:47 AM 42.5053 -78.5456 342° North 323 372 10,200 -871 Descending Cleveland Center
Sat 11:05:49 AM 42.5914 -78.5436 North 296 341 9,800 -732 Descending Cleveland Center
Sat 11:06:50 AM 42.6614 -78.5294 North 275 316 8,700 -1,317 Descending Cleveland Center
Sat 11:07:52 AM 42.7381 -78.5183 North 263 303 7,100 -1,805 Descending Cleveland Center
Sat 11:08:53 AM 42.8108 -78.5242 357° North 254 292 5,000 -1,512 Descending Cleveland Center
Sat 11:09:55 AM 42.8822 -78.5350 354° North 249 287 4,000 -976 Descending Cleveland Center
Sat 11:10:56 AM 42.9511 -78.5453 354° North 242 278 3,000 -829 Descending Cleveland Center
Sat 11:11:58 AM 42.9994 -78.5853 329° Northwest 230 265 2,300 -385 Descending Cleveland Center
Sat 11:12:45 AM 43.0000 -78.6333 271° West 148 170 2,300 -336 Level Buffalo TRACON
Sat 11:13:45 AM 42.9833 -78.6667 236° Southwest 119 137 1,700 -650 Descending Buffalo TRACON
Sat 11:14:45 AM 42.9500 -78.7000 216° Southwest 121 139 1,000 -700 Descending Buffalo TRACON

Login

Don't have an account? Register now (free) for customized features, flight alerts, and more!